Huvudsida
METAR-TAF:

METAR-TAF

Flygplatser :

Svalbards flygplats. Longyear

Longyearbyen, Norge

latitud: 78-15N, longitud: 015-28E, höjd: 2 m

Aktuellt väderrapport

Denna rapport gjordes för 1 timme och 2 minuter sedan, klockan 00:50 UTC
Vind 5 kt från ost/sydost
Temperatur 4°C
Fuktighet 93%
Tryck 985 hPa
Sikt 10 km eller mer
Spridda moln på en höjd av 1400 ft
Mulet på en höjd av 2500 ft

METAR: ENSB 190050Z 11005KT 9999 SCT014 OVC025 04/03 Q0985 RMK WIND 1400FT 20004KT

Tid: 03:52 (01:52 UTC)

Väderprognos

Prognos gäller från 19 kl. 00 UTC till 19 kl. 24 UTC
Vind 8 kt från väst
Sikt 10 km eller mer
Få moln på en höjd av 1000 ft
Brutna moln på en höjd av 2000 ft
lätt regn
Sannolikhet 40% :
Temporärt
från 19 kl. 00 UTC till 19 kl. 18 UTC
Brutna moln på en höjd av 800 ft

TAF: ENSB 1900/1924 27008KT 9999 -RA FEW010 BKN020 PROB40 TEMPO 1900/1918 BKN008

Aktuella väderrapporter och prognoser från 4000 flygplatser (METAR- och TAF-rapporter).

De tillgängliga stationerna syns som gula och röda prickar på kartan.

För musen över prickarna för att se namnen på stationerna.

Klicka sedan för att få väderrapporter och prognoser.

För att ändra kartan: Klicka på de gröna knapparna med ett svart kors på för att zooma in; den gröna knappen med ett streck på för att zooma ut; eller på de gröna pilarna för angränsande kartor.


METAR-TAF: